sensor_id;sensor_type;location;lat;lon;timestamp;P1;durP1;ratioP1;P2;durP2;ratioP2
64957;SDS011;51486;50.232;19.208;2023-06-10T00:02:34;12.40;;;7.33;;
64957;SDS011;51486;50.232;19.208;2023-06-10T00:05:20;12.93;;;7.60;;
64957;SDS011;51486;50.232;19.208;2023-06-10T00:08:06;11.47;;;7.47;;
64957;SDS011;51486;50.232;19.208;2023-06-10T00:10:52;10.23;;;6.70;;
64957;SDS011;51486;50.232;19.208;2023-06-10T00:13:38;20.33;;;7.40;;
64957;SDS011;51486;50.232;19.208;2023-06-10T00:16:24;11.57;;;7.63;;
64957;SDS011;51486;50.232;19.208;2023-06-10T00:19:10;14.23;;;8.17;;
64957;SDS011;51486;50.232;19.208;2023-06-10T00:21:58;17.00;;;8.67;;
64957;SDS011;51486;50.232;19.208;2023-06-10T00:24:44;12.67;;;8.10;;
64957;SDS011;51486;50.232;19.208;2023-06-10T00:27:30;11.40;;;7.33;;
64957;SDS011;51486;50.232;19.208;2023-06-10T00:30:20;13.07;;;7.30;;
64957;SDS011;51486;50.232;19.208;2023-06-10T00:33:06;15.93;;;8.10;;
64957;SDS011;51486;50.232;19.208;2023-06-10T00:35:52;18.77;;;6.90;;
64957;SDS011;51486;50.232;19.208;2023-06-10T00:38:38;14.13;;;7.97;;
64957;SDS011;51486;50.232;19.208;2023-06-10T00:41:23;14.93;;;8.23;;
64957;SDS011;51486;50.232;19.208;2023-06-10T00:44:09;11.93;;;6.90;;
64957;SDS011;51486;50.232;19.208;2023-06-10T00:46:55;13.97;;;8.17;;
64957;SDS011;51486;50.232;19.208;2023-06-10T00:49:41;15.23;;;7.97;;
64957;SDS011;51486;50.232;19.208;2023-06-10T00:52:27;12.47;;;8.17;;
64957;SDS011;51486;50.232;19.208;2023-06-10T00:55:16;14.83;;;8.33;;
64957;SDS011;51486;50.232;19.208;2023-06-10T00:58:02;13.67;;;7.60;;
64957;SDS011;51486;50.232;19.208;2023-06-10T01:00:49;13.27;;;7.47;;
64957;SDS011;51486;50.232;19.208;2023-06-10T01:03:35;14.03;;;8.30;;
64957;SDS011;51486;50.232;19.208;2023-06-10T01:09:45;15.10;;;6.63;;
64957;SDS011;51486;50.232;19.208;2023-06-10T01:12:45;10.57;;;6.53;;
64957;SDS011;51486;50.232;19.208;2023-06-10T01:15:39;12.23;;;7.17;;
64957;SDS011;51486;50.232;19.208;2023-06-10T01:18:31;13.90;;;8.30;;
64957;SDS011;51486;50.232;19.208;2023-06-10T01:21:23;11.13;;;6.93;;
64957;SDS011;51486;50.232;19.208;2023-06-10T01:24:12;13.77;;;8.43;;
64957;SDS011;51486;50.232;19.208;2023-06-10T01:26:59;12.70;;;8.00;;
64957;SDS011;51486;50.232;19.208;2023-06-10T01:29:49;12.10;;;8.10;;
64957;SDS011;51486;50.232;19.208;2023-06-10T01:32:40;14.47;;;8.37;;
64957;SDS011;51486;50.232;19.208;2023-06-10T01:35:30;12.83;;;7.37;;
64957;SDS011;51486;50.232;19.208;2023-06-10T01:38:16;15.10;;;7.30;;
64957;SDS011;51486;50.232;19.208;2023-06-10T01:41:04;12.37;;;7.23;;
64957;SDS011;51486;50.232;19.208;2023-06-10T01:43:51;11.47;;;7.07;;
64957;SDS011;51486;50.232;19.208;2023-06-10T01:46:37;11.43;;;7.13;;
64957;SDS011;51486;50.232;19.208;2023-06-10T01:49:25;17.20;;;8.20;;
64957;SDS011;51486;50.232;19.208;2023-06-10T01:52:12;13.60;;;7.73;;
64957;SDS011;51486;50.232;19.208;2023-06-10T01:54:58;10.83;;;7.27;;
64957;SDS011;51486;50.232;19.208;2023-06-10T01:57:43;11.60;;;7.20;;
64957;SDS011;51486;50.232;19.208;2023-06-10T02:00:29;14.17;;;7.93;;
64957;SDS011;51486;50.232;19.208;2023-06-10T02:03:15;15.07;;;9.07;;
64957;SDS011;51486;50.232;19.208;2023-06-10T02:06:01;12.07;;;7.50;;
64957;SDS011;51486;50.232;19.208;2023-06-10T02:08:46;13.03;;;8.33;;
64957;SDS011;51486;50.232;19.208;2023-06-10T02:11:32;13.70;;;8.87;;
64957;SDS011;51486;50.232;19.208;2023-06-10T02:14:18;19.97;;;10.13;;
64957;SDS011;51486;50.232;19.208;2023-06-10T02:17:04;15.37;;;8.60;;
64957;SDS011;51486;50.232;19.208;2023-06-10T02:19:49;15.63;;;8.57;;
64957;SDS011;51486;50.232;19.208;2023-06-10T02:22:38;15.93;;;8.47;;
64957;SDS011;51486;50.232;19.208;2023-06-10T02:25:23;15.67;;;8.70;;
64957;SDS011;51486;50.232;19.208;2023-06-10T02:28:09;15.40;;;8.77;;
64957;SDS011;51486;50.232;19.208;2023-06-10T02:30:55;14.30;;;8.10;;
64957;SDS011;51486;50.232;19.208;2023-06-10T02:33:42;15.40;;;8.77;;
64957;SDS011;51486;50.232;19.208;2023-06-10T02:36:28;13.07;;;8.13;;
64957;SDS011;51486;50.232;19.208;2023-06-10T02:39:13;18.30;;;9.30;;
64957;SDS011;51486;50.232;19.208;2023-06-10T02:41:59;16.77;;;8.97;;
64957;SDS011;51486;50.232;19.208;2023-06-10T02:44:45;16.57;;;9.80;;
64957;SDS011;51486;50.232;19.208;2023-06-10T02:47:31;22.13;;;8.13;;
64957;SDS011;51486;50.232;19.208;2023-06-10T02:50:17;14.83;;;8.27;;
64957;SDS011;51486;50.232;19.208;2023-06-10T02:53:03;15.80;;;8.33;;
64957;SDS011;51486;50.232;19.208;2023-06-10T02:55:48;13.10;;;8.27;;
64957;SDS011;51486;50.232;19.208;2023-06-10T02:58:34;14.70;;;7.60;;
64957;SDS011;51486;50.232;19.208;2023-06-10T03:01:20;13.90;;;8.80;;
64957;SDS011;51486;50.232;19.208;2023-06-10T03:04:06;19.57;;;8.60;;
64957;SDS011;51486;50.232;19.208;2023-06-10T03:06:52;12.13;;;7.80;;
64957;SDS011;51486;50.232;19.208;2023-06-10T03:09:38;14.07;;;8.57;;
64957;SDS011;51486;50.232;19.208;2023-06-10T03:12:24;15.27;;;8.77;;
64957;SDS011;51486;50.232;19.208;2023-06-10T03:15:09;15.37;;;8.83;;
64957;SDS011;51486;50.232;19.208;2023-06-10T03:17:55;14.13;;;9.60;;
64957;SDS011;51486;50.232;19.208;2023-06-10T03:20:41;12.33;;;8.00;;
64957;SDS011;51486;50.232;19.208;2023-06-10T03:23:27;14.43;;;7.87;;
64957;SDS011;51486;50.232;19.208;2023-06-10T03:26:12;15.40;;;7.77;;
64957;SDS011;51486;50.232;19.208;2023-06-10T03:28:59;11.67;;;7.43;;
64957;SDS011;51486;50.232;19.208;2023-06-10T03:31:45;17.63;;;7.73;;
64957;SDS011;51486;50.232;19.208;2023-06-10T03:34:30;12.70;;;7.50;;
64957;SDS011;51486;50.232;19.208;2023-06-10T03:37:19;13.33;;;8.03;;
64957;SDS011;51486;50.232;19.208;2023-06-10T03:40:05;11.83;;;7.47;;
64957;SDS011;51486;50.232;19.208;2023-06-10T03:42:52;13.10;;;7.60;;
64957;SDS011;51486;50.232;19.208;2023-06-10T03:45:38;11.20;;;7.47;;
64957;SDS011;51486;50.232;19.208;2023-06-10T03:48:23;14.93;;;8.23;;
64957;SDS011;51486;50.232;19.208;2023-06-10T03:51:09;12.50;;;7.10;;
64957;SDS011;51486;50.232;19.208;2023-06-10T03:53:55;12.57;;;7.87;;
64957;SDS011;51486;50.232;19.208;2023-06-10T03:56:40;13.43;;;7.77;;
64957;SDS011;51486;50.232;19.208;2023-06-10T03:59:26;15.03;;;7.23;;
64957;SDS011;51486;50.232;19.208;2023-06-10T04:02:12;10.57;;;6.80;;
64957;SDS011;51486;50.232;19.208;2023-06-10T04:04:58;10.33;;;6.27;;
64957;SDS011;51486;50.232;19.208;2023-06-10T04:07:44;9.33;;;6.10;;
64957;SDS011;51486;50.232;19.208;2023-06-10T04:10:30;13.87;;;7.07;;
64957;SDS011;51486;50.232;19.208;2023-06-10T04:13:15;13.10;;;7.20;;
64957;SDS011;51486;50.232;19.208;2023-06-10T04:16:01;12.53;;;6.63;;
64957;SDS011;51486;50.232;19.208;2023-06-10T04:18:47;9.33;;;6.07;;
64957;SDS011;51486;50.232;19.208;2023-06-10T04:21:33;14.97;;;5.97;;
64957;SDS011;51486;50.232;19.208;2023-06-10T04:24:19;9.33;;;5.83;;
64957;SDS011;51486;50.232;19.208;2023-06-10T04:27:05;11.27;;;6.30;;
64957;SDS011;51486;50.232;19.208;2023-06-10T04:29:51;9.47;;;5.87;;
64957;SDS011;51486;50.232;19.208;2023-06-10T04:32:37;10.77;;;6.50;;
64957;SDS011;51486;50.232;19.208;2023-06-10T04:35:23;7.90;;;5.47;;
64957;SDS011;51486;50.232;19.208;2023-06-10T04:38:11;10.37;;;5.73;;
64957;SDS011;51486;50.232;19.208;2023-06-10T04:40:58;9.90;;;5.30;;
64957;SDS011;51486;50.232;19.208;2023-06-10T04:43:43;8.57;;;5.37;;
64957;SDS011;51486;50.232;19.208;2023-06-10T04:46:29;11.60;;;5.53;;
64957;SDS011;51486;50.232;19.208;2023-06-10T04:49:17;7.70;;;5.30;;
64957;SDS011;51486;50.232;19.208;2023-06-10T04:52:02;8.53;;;5.20;;
64957;SDS011;51486;50.232;19.208;2023-06-10T04:54:50;8.30;;;5.17;;
64957;SDS011;51486;50.232;19.208;2023-06-10T04:57:35;9.20;;;5.50;;
64957;SDS011;51486;50.232;19.208;2023-06-10T05:00:21;7.13;;;4.40;;
64957;SDS011;51486;50.232;19.208;2023-06-10T05:03:07;9.33;;;4.93;;
64957;SDS011;51486;50.232;19.208;2023-06-10T05:05:53;8.17;;;5.30;;
64957;SDS011;51486;50.232;19.208;2023-06-10T05:08:39;7.20;;;4.33;;
64957;SDS011;51486;50.232;19.208;2023-06-10T05:11:24;7.27;;;4.70;;
64957;SDS011;51486;50.232;19.208;2023-06-10T05:14:10;12.77;;;6.23;;
64957;SDS011;51486;50.232;19.208;2023-06-10T05:16:56;17.53;;;7.57;;
64957;SDS011;51486;50.232;19.208;2023-06-10T05:19:42;15.87;;;7.20;;
64957;SDS011;51486;50.232;19.208;2023-06-10T05:22:28;12.87;;;7.03;;
64957;SDS011;51486;50.232;19.208;2023-06-10T05:25:14;9.03;;;5.13;;
64957;SDS011;51486;50.232;19.208;2023-06-10T05:28:00;6.53;;;4.47;;
64957;SDS011;51486;50.232;19.208;2023-06-10T05:30:45;5.70;;;3.90;;
64957;SDS011;51486;50.232;19.208;2023-06-10T05:33:31;9.57;;;4.33;;
64957;SDS011;51486;50.232;19.208;2023-06-10T05:36:17;8.13;;;4.70;;
64957;SDS011;51486;50.232;19.208;2023-06-10T05:39:03;6.63;;;4.50;;
64957;SDS011;51486;50.232;19.208;2023-06-10T05:41:48;8.87;;;4.87;;
64957;SDS011;51486;50.232;19.208;2023-06-10T05:44:34;6.67;;;4.33;;
64957;SDS011;51486;50.232;19.208;2023-06-10T05:47:20;6.33;;;4.20;;
64957;SDS011;51486;50.232;19.208;2023-06-10T05:50:06;6.97;;;4.23;;
64957;SDS011;51486;50.232;19.208;2023-06-10T05:52:52;6.77;;;3.97;;
64957;SDS011;51486;50.232;19.208;2023-06-10T05:55:39;8.90;;;5.30;;
64957;SDS011;51486;50.232;19.208;2023-06-10T05:58:25;8.73;;;4.17;;
64957;SDS011;51486;50.232;19.208;2023-06-10T06:01:10;7.10;;;4.30;;
64957;SDS011;51486;50.232;19.208;2023-06-10T06:03:56;7.00;;;4.43;;
64957;SDS011;51486;50.232;19.208;2023-06-10T06:06:42;6.70;;;4.63;;
64957;SDS011;51486;50.232;19.208;2023-06-10T06:09:27;5.30;;;4.03;;
64957;SDS011;51486;50.232;19.208;2023-06-10T06:12:13;13.73;;;4.20;;
64957;SDS011;51486;50.232;19.208;2023-06-10T06:14:59;6.97;;;4.07;;
64957;SDS011;51486;50.232;19.208;2023-06-10T06:17:45;8.97;;;4.17;;
64957;SDS011;51486;50.232;19.208;2023-06-10T06:20:30;7.47;;;4.40;;
64957;SDS011;51486;50.232;19.208;2023-06-10T06:23:16;8.07;;;4.90;;
64957;SDS011;51486;50.232;19.208;2023-06-10T06:26:02;7.90;;;4.73;;
64957;SDS011;51486;50.232;19.208;2023-06-10T06:28:47;5.73;;;4.20;;
64957;SDS011;51486;50.232;19.208;2023-06-10T06:31:33;7.90;;;4.93;;
64957;SDS011;51486;50.232;19.208;2023-06-10T06:34:19;10.70;;;5.70;;
64957;SDS011;51486;50.232;19.208;2023-06-10T06:37:05;16.40;;;4.87;;
64957;SDS011;51486;50.232;19.208;2023-06-10T06:39:51;13.40;;;4.40;;
64957;SDS011;51486;50.232;19.208;2023-06-10T06:42:37;7.53;;;4.53;;
64957;SDS011;51486;50.232;19.208;2023-06-10T06:45:23;7.47;;;4.20;;
64957;SDS011;51486;50.232;19.208;2023-06-10T06:48:09;7.67;;;4.50;;
64957;SDS011;51486;50.232;19.208;2023-06-10T06:50:55;12.10;;;4.40;;
64957;SDS011;51486;50.232;19.208;2023-06-10T06:53:41;7.30;;;4.20;;
64957;SDS011;51486;50.232;19.208;2023-06-10T06:56:30;7.07;;;4.17;;
64957;SDS011;51486;50.232;19.208;2023-06-10T06:59:15;23.83;;;6.00;;
64957;SDS011;51486;50.232;19.208;2023-06-10T07:02:04;8.47;;;4.80;;
64957;SDS011;51486;50.232;19.208;2023-06-10T07:04:50;10.30;;;4.87;;
64957;SDS011;51486;50.232;19.208;2023-06-10T07:07:36;7.67;;;4.73;;
64957;SDS011;51486;50.232;19.208;2023-06-10T07:10:23;8.13;;;4.27;;
64957;SDS011;51486;50.232;19.208;2023-06-10T07:13:09;6.03;;;4.23;;
64957;SDS011;51486;50.232;19.208;2023-06-10T07:15:55;6.40;;;4.23;;
64957;SDS011;51486;50.232;19.208;2023-06-10T07:18:41;7.23;;;4.83;;
64957;SDS011;51486;50.232;19.208;2023-06-10T07:21:27;11.03;;;4.93;;
64957;SDS011;51486;50.232;19.208;2023-06-10T07:24:15;7.07;;;4.33;;
64957;SDS011;51486;50.232;19.208;2023-06-10T07:27:01;8.93;;;4.33;;
64957;SDS011;51486;50.232;19.208;2023-06-10T07:29:46;5.77;;;4.20;;
64957;SDS011;51486;50.232;19.208;2023-06-10T07:32:32;8.40;;;3.97;;
64957;SDS011;51486;50.232;19.208;2023-06-10T07:35:18;6.50;;;4.33;;
64957;SDS011;51486;50.232;19.208;2023-06-10T07:38:04;8.83;;;5.13;;
64957;SDS011;51486;50.232;19.208;2023-06-10T07:40:49;6.40;;;4.33;;
64957;SDS011;51486;50.232;19.208;2023-06-10T07:43:35;7.10;;;4.60;;
64957;SDS011;51486;50.232;19.208;2023-06-10T07:46:22;7.87;;;4.67;;
64957;SDS011;51486;50.232;19.208;2023-06-10T07:49:08;7.37;;;4.23;;
64957;SDS011;51486;50.232;19.208;2023-06-10T07:51:54;6.23;;;4.40;;
64957;SDS011;51486;50.232;19.208;2023-06-10T07:54:41;13.03;;;3.90;;
64957;SDS011;51486;50.232;19.208;2023-06-10T07:57:26;8.70;;;4.03;;
64957;SDS011;51486;50.232;19.208;2023-06-10T08:00:12;11.43;;;4.17;;
64957;SDS011;51486;50.232;19.208;2023-06-10T08:02:58;8.47;;;3.70;;
64957;SDS011;51486;50.232;19.208;2023-06-10T08:05:44;7.87;;;4.17;;
64957;SDS011;51486;50.232;19.208;2023-06-10T08:08:29;5.43;;;3.93;;
64957;SDS011;51486;50.232;19.208;2023-06-10T08:11:15;6.03;;;3.50;;
64957;SDS011;51486;50.232;19.208;2023-06-10T08:14:01;5.50;;;3.30;;
64957;SDS011;51486;50.232;19.208;2023-06-10T08:16:46;4.73;;;3.17;;
64957;SDS011;51486;50.232;19.208;2023-06-10T08:19:32;7.73;;;3.83;;
64957;SDS011;51486;50.232;19.208;2023-06-10T08:22:18;5.10;;;3.00;;
64957;SDS011;51486;50.232;19.208;2023-06-10T08:25:04;8.80;;;3.80;;
64957;SDS011;51486;50.232;19.208;2023-06-10T08:27:50;7.47;;;3.40;;
64957;SDS011;51486;50.232;19.208;2023-06-10T08:30:37;6.40;;;3.57;;
64957;SDS011;51486;50.232;19.208;2023-06-10T08:33:23;4.97;;;3.30;;
64957;SDS011;51486;50.232;19.208;2023-06-10T08:36:09;5.10;;;3.50;;
64957;SDS011;51486;50.232;19.208;2023-06-10T08:38:54;5.47;;;3.00;;
64957;SDS011;51486;50.232;19.208;2023-06-10T08:41:42;5.60;;;3.65;;
64957;SDS011;51486;50.232;19.208;2023-06-10T08:44:29;4.70;;;3.07;;
64957;SDS011;51486;50.232;19.208;2023-06-10T08:47:16;6.38;;;3.22;;
64957;SDS011;51486;50.232;19.208;2023-06-10T08:50:02;5.33;;;3.53;;
64957;SDS011;51486;50.232;19.208;2023-06-10T08:52:50;6.88;;;3.42;;
64957;SDS011;51486;50.232;19.208;2023-06-10T08:55:40;5.82;;;2.90;;
64957;SDS011;51486;50.232;19.208;2023-06-10T08:58:27;5.45;;;3.10;;
64957;SDS011;51486;50.232;19.208;2023-06-10T09:01:13;4.17;;;2.97;;
64957;SDS011;51486;50.232;19.208;2023-06-10T09:03:59;7.65;;;3.10;;
64957;SDS011;51486;50.232;19.208;2023-06-10T09:06:45;4.22;;;2.80;;
64957;SDS011;51486;50.232;19.208;2023-06-10T09:09:32;5.95;;;3.25;;
64957;SDS011;51486;50.232;19.208;2023-06-10T09:12:20;3.85;;;2.50;;
64957;SDS011;51486;50.232;19.208;2023-06-10T09:15:06;7.10;;;2.97;;
64957;SDS011;51486;50.232;19.208;2023-06-10T09:17:52;5.03;;;3.05;;
64957;SDS011;51486;50.232;19.208;2023-06-10T09:20:38;4.60;;;3.00;;
64957;SDS011;51486;50.232;19.208;2023-06-10T09:23:24;7.22;;;3.38;;
64957;SDS011;51486;50.232;19.208;2023-06-10T09:26:10;5.00;;;2.92;;
64957;SDS011;51486;50.232;19.208;2023-06-10T09:29:03;5.95;;;3.22;;
64957;SDS011;51486;50.232;19.208;2023-06-10T09:31:50;9.65;;;3.28;;
64957;SDS011;51486;50.232;19.208;2023-06-10T09:34:36;5.00;;;2.90;;
64957;SDS011;51486;50.232;19.208;2023-06-10T09:37:22;3.60;;;2.78;;
64957;SDS011;51486;50.232;19.208;2023-06-10T09:40:09;4.65;;;2.72;;
64957;SDS011;51486;50.232;19.208;2023-06-10T09:42:56;4.45;;;2.53;;
64957;SDS011;51486;50.232;19.208;2023-06-10T09:45:43;4.68;;;2.30;;
64957;SDS011;51486;50.232;19.208;2023-06-10T09:48:28;3.25;;;2.40;;
64957;SDS011;51486;50.232;19.208;2023-06-10T09:51:14;4.63;;;2.83;;
64957;SDS011;51486;50.232;19.208;2023-06-10T09:54:03;5.32;;;2.60;;
64957;SDS011;51486;50.232;19.208;2023-06-10T09:56:49;3.97;;;2.75;;
64957;SDS011;51486;50.232;19.208;2023-06-10T09:59:37;3.20;;;2.20;;
64957;SDS011;51486;50.232;19.208;2023-06-10T10:02:23;3.08;;;2.33;;
64957;SDS011;51486;50.232;19.208;2023-06-10T10:05:12;2.95;;;1.95;;
64957;SDS011;51486;50.232;19.208;2023-06-10T10:07:59;3.45;;;2.45;;
64957;SDS011;51486;50.232;19.208;2023-06-10T10:10:45;4.55;;;2.30;;
64957;SDS011;51486;50.232;19.208;2023-06-10T10:13:34;4.00;;;2.42;;
64957;SDS011;51486;50.232;19.208;2023-06-10T10:16:21;4.25;;;2.38;;
64957;SDS011;51486;50.232;19.208;2023-06-10T10:19:23;3.88;;;2.28;;
64957;SDS011;51486;50.232;19.208;2023-06-10T10:22:15;4.30;;;2.45;;
64957;SDS011;51486;50.232;19.208;2023-06-10T10:25:11;5.32;;;2.40;;
64957;SDS011;51486;50.232;19.208;2023-06-10T10:28:01;3.63;;;2.15;;
64957;SDS011;51486;50.232;19.208;2023-06-10T10:30:52;4.95;;;2.17;;
64957;SDS011;51486;50.232;19.208;2023-06-10T10:33:45;3.38;;;2.08;;
64957;SDS011;51486;50.232;19.208;2023-06-10T10:36:46;2.90;;;2.25;;
64957;SDS011;51486;50.232;19.208;2023-06-10T10:39:33;2.47;;;1.85;;
64957;SDS011;51486;50.232;19.208;2023-06-10T10:42:20;3.13;;;2.10;;
64957;SDS011;51486;50.232;19.208;2023-06-10T10:45:07;2.20;;;1.55;;
64957;SDS011;51486;50.232;19.208;2023-06-10T10:47:53;3.05;;;2.15;;
64957;SDS011;51486;50.232;19.208;2023-06-10T10:50:41;4.28;;;2.20;;
64957;SDS011;51486;50.232;19.208;2023-06-10T10:53:27;4.80;;;2.42;;
64957;SDS011;51486;50.232;19.208;2023-06-10T10:56:13;1.95;;;1.60;;
64957;SDS011;51486;50.232;19.208;2023-06-10T10:59:06;2.90;;;2.10;;
64957;SDS011;51486;50.232;19.208;2023-06-10T11:01:53;2.05;;;1.73;;
64957;SDS011;51486;50.232;19.208;2023-06-10T11:04:43;2.42;;;1.65;;
64957;SDS011;51486;50.232;19.208;2023-06-10T11:07:30;2.78;;;1.80;;
64957;SDS011;51486;50.232;19.208;2023-06-10T11:10:17;2.38;;;1.58;;
64957;SDS011;51486;50.232;19.208;2023-06-10T11:13:12;2.45;;;1.58;;
64957;SDS011;51486;50.232;19.208;2023-06-10T11:15:59;2.17;;;1.52;;
64957;SDS011;51486;50.232;19.208;2023-06-10T11:18:45;7.32;;;2.40;;
64957;SDS011;51486;50.232;19.208;2023-06-10T11:21:57;1.65;;;1.35;;
64957;SDS011;51486;50.232;19.208;2023-06-10T11:24:48;5.65;;;2.10;;
64957;SDS011;51486;50.232;19.208;2023-06-10T11:27:38;1.83;;;1.70;;
64957;SDS011;51486;50.232;19.208;2023-06-10T11:30:25;2.40;;;2.00;;
64957;SDS011;51486;50.232;19.208;2023-06-10T11:33:20;3.05;;;2.17;;
64957;SDS011;51486;50.232;19.208;2023-06-10T11:36:06;2.70;;;1.70;;
64957;SDS011;51486;50.232;19.208;2023-06-10T11:38:54;2.65;;;1.88;;
64957;SDS011;51486;50.232;19.208;2023-06-10T11:41:41;2.72;;;1.48;;
64957;SDS011;51486;50.232;19.208;2023-06-10T11:44:27;2.55;;;1.95;;
64957;SDS011;51486;50.232;19.208;2023-06-10T11:47:13;2.65;;;1.70;;
64957;SDS011;51486;50.232;19.208;2023-06-10T11:49:59;2.70;;;2.05;;
64957;SDS011;51486;50.232;19.208;2023-06-10T11:52:45;4.93;;;2.30;;
64957;SDS011;51486;50.232;19.208;2023-06-10T11:55:43;3.17;;;2.05;;
64957;SDS011;51486;50.232;19.208;2023-06-10T11:58:30;3.03;;;1.65;;
64957;SDS011;51486;50.232;19.208;2023-06-10T12:01:19;3.45;;;1.95;;
64957;SDS011;51486;50.232;19.208;2023-06-10T12:04:08;4.03;;;1.80;;
64957;SDS011;51486;50.232;19.208;2023-06-10T12:06:55;3.38;;;2.13;;
64957;SDS011;51486;50.232;19.208;2023-06-10T12:09:41;2.55;;;1.73;;
64957;SDS011;51486;50.232;19.208;2023-06-10T12:12:26;4.05;;;2.10;;
64957;SDS011;51486;50.232;19.208;2023-06-10T12:15:19;3.30;;;1.88;;
64957;SDS011;51486;50.232;19.208;2023-06-10T12:18:17;3.78;;;1.92;;
64957;SDS011;51486;50.232;19.208;2023-06-10T12:21:14;2.47;;;1.50;;
64957;SDS011;51486;50.232;19.208;2023-06-10T12:24:08;4.10;;;2.13;;
64957;SDS011;51486;50.232;19.208;2023-06-10T12:26:55;4.18;;;2.03;;
64957;SDS011;51486;50.232;19.208;2023-06-10T12:29:50;3.05;;;1.77;;
64957;SDS011;51486;50.232;19.208;2023-06-10T12:32:42;4.80;;;1.88;;
64957;SDS011;51486;50.232;19.208;2023-06-10T12:35:30;3.38;;;1.85;;
64957;SDS011;51486;50.232;19.208;2023-06-10T12:38:22;2.88;;;1.77;;
64957;SDS011;51486;50.232;19.208;2023-06-10T12:41:14;5.70;;;2.08;;
64957;SDS011;51486;50.232;19.208;2023-06-10T12:44:00;2.10;;;1.63;;
64957;SDS011;51486;50.232;19.208;2023-06-10T12:46:53;2.60;;;1.77;;
64957;SDS011;51486;50.232;19.208;2023-06-10T12:49:39;2.05;;;1.75;;
64957;SDS011;51486;50.232;19.208;2023-06-10T12:52:25;3.03;;;1.85;;
64957;SDS011;51486;50.232;19.208;2023-06-10T12:55:11;2.88;;;2.30;;
64957;SDS011;51486;50.232;19.208;2023-06-10T12:57:57;4.10;;;2.13;;
64957;SDS011;51486;50.232;19.208;2023-06-10T13:00:43;3.15;;;2.00;;
64957;SDS011;51486;50.232;19.208;2023-06-10T13:03:29;2.60;;;1.90;;
64957;SDS011;51486;50.232;19.208;2023-06-10T13:06:15;3.63;;;1.90;;
64957;SDS011;51486;50.232;19.208;2023-06-10T13:09:01;3.58;;;1.80;;
64957;SDS011;51486;50.232;19.208;2023-06-10T13:11:48;3.85;;;2.65;;
64957;SDS011;51486;50.232;19.208;2023-06-10T13:14:33;2.58;;;2.13;;
64957;SDS011;51486;50.232;19.208;2023-06-10T13:17:19;2.92;;;2.38;;
64957;SDS011;51486;50.232;19.208;2023-06-10T13:20:05;4.22;;;1.90;;
64957;SDS011;51486;50.232;19.208;2023-06-10T13:22:52;3.72;;;2.33;;
64957;SDS011;51486;50.232;19.208;2023-06-10T13:25:38;2.33;;;1.98;;
64957;SDS011;51486;50.232;19.208;2023-06-10T13:28:25;3.15;;;2.00;;
64957;SDS011;51486;50.232;19.208;2023-06-10T13:31:11;4.22;;;2.20;;
64957;SDS011;51486;50.232;19.208;2023-06-10T13:33:57;3.65;;;2.22;;
64957;SDS011;51486;50.232;19.208;2023-06-10T13:36:43;2.97;;;2.17;;
64957;SDS011;51486;50.232;19.208;2023-06-10T13:39:29;14.65;;;2.22;;
64957;SDS011;51486;50.232;19.208;2023-06-10T13:42:15;3.03;;;2.10;;
64957;SDS011;51486;50.232;19.208;2023-06-10T13:45:00;2.13;;;1.83;;
64957;SDS011;51486;50.232;19.208;2023-06-10T13:47:46;3.67;;;2.08;;
64957;SDS011;51486;50.232;19.208;2023-06-10T13:50:32;4.68;;;2.20;;
64957;SDS011;51486;50.232;19.208;2023-06-10T13:53:18;2.72;;;1.92;;
64957;SDS011;51486;50.232;19.208;2023-06-10T13:56:03;3.58;;;2.00;;
64957;SDS011;51486;50.232;19.208;2023-06-10T13:58:49;2.08;;;1.73;;
64957;SDS011;51486;50.232;19.208;2023-06-10T14:01:35;3.15;;;2.08;;
64957;SDS011;51486;50.232;19.208;2023-06-10T14:04:20;4.50;;;1.95;;
64957;SDS011;51486;50.232;19.208;2023-06-10T14:07:06;2.30;;;1.67;;
64957;SDS011;51486;50.232;19.208;2023-06-10T14:09:52;3.50;;;2.10;;
64957;SDS011;51486;50.232;19.208;2023-06-10T14:12:38;2.60;;;2.20;;
64957;SDS011;51486;50.232;19.208;2023-06-10T14:15:24;3.80;;;2.25;;
64957;SDS011;51486;50.232;19.208;2023-06-10T14:18:10;3.28;;;2.30;;
64957;SDS011;51486;50.232;19.208;2023-06-10T14:20:55;4.03;;;2.08;;
64957;SDS011;51486;50.232;19.208;2023-06-10T14:23:41;3.53;;;2.08;;
64957;SDS011;51486;50.232;19.208;2023-06-10T14:26:28;2.42;;;2.00;;
64957;SDS011;51486;50.232;19.208;2023-06-10T14:29:14;2.58;;;1.75;;
64957;SDS011;51486;50.232;19.208;2023-06-10T14:31:59;3.80;;;1.40;;
64957;SDS011;51486;50.232;19.208;2023-06-10T14:34:45;3.13;;;2.17;;
64957;SDS011;51486;50.232;19.208;2023-06-10T14:37:32;3.75;;;2.17;;
64957;SDS011;51486;50.232;19.208;2023-06-10T14:40:18;3.97;;;1.70;;
64957;SDS011;51486;50.232;19.208;2023-06-10T14:43:03;44.35;;;2.67;;
64957;SDS011;51486;50.232;19.208;2023-06-10T14:45:55;6.72;;;2.35;;
64957;SDS011;51486;50.232;19.208;2023-06-10T14:48:41;6.38;;;2.78;;
64957;SDS011;51486;50.232;19.208;2023-06-10T14:51:27;3.28;;;1.92;;
64957;SDS011;51486;50.232;19.208;2023-06-10T14:54:12;3.92;;;2.13;;
64957;SDS011;51486;50.232;19.208;2023-06-10T14:56:58;14.07;;;3.30;;
64957;SDS011;51486;50.232;19.208;2023-06-10T14:59:44;4.32;;;2.65;;
64957;SDS011;51486;50.232;19.208;2023-06-10T15:02:30;3.30;;;2.28;;
64957;SDS011;51486;50.232;19.208;2023-06-10T15:05:16;4.25;;;2.38;;
64957;SDS011;51486;50.232;19.208;2023-06-10T15:08:04;4.93;;;2.45;;
64957;SDS011;51486;50.232;19.208;2023-06-10T15:10:50;7.13;;;3.20;;
64957;SDS011;51486;50.232;19.208;2023-06-10T15:13:36;5.15;;;2.85;;
64957;SDS011;51486;50.232;19.208;2023-06-10T15:16:21;5.80;;;2.90;;
64957;SDS011;51486;50.232;19.208;2023-06-10T15:19:07;6.80;;;2.85;;
64957;SDS011;51486;50.232;19.208;2023-06-10T15:21:54;4.57;;;2.70;;
64957;SDS011;51486;50.232;19.208;2023-06-10T15:24:40;8.00;;;3.07;;
64957;SDS011;51486;50.232;19.208;2023-06-10T15:27:26;7.50;;;3.17;;
64957;SDS011;51486;50.232;19.208;2023-06-10T15:30:11;4.55;;;2.97;;
64957;SDS011;51486;50.232;19.208;2023-06-10T15:32:57;7.55;;;3.08;;
64957;SDS011;51486;50.232;19.208;2023-06-10T15:35:43;4.75;;;2.65;;
64957;SDS011;51486;50.232;19.208;2023-06-10T15:38:29;3.53;;;2.70;;
64957;SDS011;51486;50.232;19.208;2023-06-10T15:41:15;4.38;;;2.63;;
64957;SDS011;51486;50.232;19.208;2023-06-10T15:44:00;3.33;;;2.63;;
64957;SDS011;51486;50.232;19.208;2023-06-10T15:46:46;8.03;;;2.93;;
64957;SDS011;51486;50.232;19.208;2023-06-10T15:49:32;7.63;;;2.90;;
64957;SDS011;51486;50.232;19.208;2023-06-10T15:52:18;7.18;;;3.00;;
64957;SDS011;51486;50.232;19.208;2023-06-10T15:55:03;3.67;;;2.42;;
64957;SDS011;51486;50.232;19.208;2023-06-10T15:57:49;3.67;;;2.53;;
64957;SDS011;51486;50.232;19.208;2023-06-10T16:00:35;3.10;;;2.30;;
64957;SDS011;51486;50.232;19.208;2023-06-10T16:03:21;3.00;;;2.10;;
64957;SDS011;51486;50.232;19.208;2023-06-10T16:06:07;4.23;;;2.10;;
64957;SDS011;51486;50.232;19.208;2023-06-10T16:08:52;3.20;;;2.13;;
64957;SDS011;51486;50.232;19.208;2023-06-10T16:11:38;2.63;;;1.90;;
64957;SDS011;51486;50.232;19.208;2023-06-10T16:14:24;2.30;;;1.70;;
64957;SDS011;51486;50.232;19.208;2023-06-10T16:17:10;3.83;;;1.90;;
64957;SDS011;51486;50.232;19.208;2023-06-10T16:19:55;1.90;;;1.60;;
64957;SDS011;51486;50.232;19.208;2023-06-10T16:22:41;2.77;;;1.67;;
64957;SDS011;51486;50.232;19.208;2023-06-10T16:25:27;2.30;;;1.70;;
64957;SDS011;51486;50.232;19.208;2023-06-10T16:28:12;3.03;;;1.83;;
64957;SDS011;51486;50.232;19.208;2023-06-10T16:30:58;5.57;;;2.13;;